Time;durP1;ratioP1;P1;durP2;ratioP2;P2;SDS_P1;SDS_P2;PMS_P1;PMS_P2;Temp;Humidity;BMP_temperature;BMP_pressure;BME280_temperature;BME280_humidity;BME280_pressure;Samples;Min_cycle;Max_cycle;Signal;HPM_P1;HPM_P2
2023/05/28 00:01:46;;;;;;;;;;;;;;;;;;5049304;28;1393;-63
2023/05/28 00:04:11;;;;;;;;;;;;;;;;;;5049119;28;1385;-63
2023/05/28 00:06:37;;;;;;;;;;;;;;;;;;5048780;28;1423;-62
2023/05/28 00:09:02;;;;;;;;;;;;;;;;;;5049088;28;1969;-64
2023/05/28 00:11:27;;;;;;;;;;;;;;;;;;5046437;28;1633;-64
2023/05/28 00:13:52;;;;;;;;;;;;;;;;;;5048563;28;1430;-65
2023/05/28 00:16:18;;;;;;;;;;;;;;;;;;5048116;28;2028;-64
2023/05/28 00:18:43;;;;;;;;;;;;;;;;;;5047286;28;1579;-64
2023/05/28 00:21:08;;;;;;;;;;;;;;;;;;5048561;28;1161;-62
2023/05/28 00:23:33;;;;;;;;;;;;;;;;;;5074374;28;1494;-64
2023/05/28 00:25:59;;;;;;;;;;;;;;;;;;5048671;28;1283;-64
2023/05/28 00:28:24;;;;;;;;;;;;;;;;;;5049746;28;1956;-63
2023/05/28 00:30:49;;;;;;;;;;;;;;;;;;5050988;28;1626;-63
2023/05/28 00:33:15;;;;;;;;;;;;;;;;;;5043220;28;1259;-62
2023/05/28 00:35:40;;;;;;;;;;;;;;;;;;5053177;28;1399;-63
2023/05/28 00:38:05;;;;;;;;;;;;;;;;;;5055356;28;1174;-64
2023/05/28 00:40:30;;;;;;;;;;;;;;;;;;5063571;28;1471;-62
2023/05/28 00:42:56;;;;;;;;;;;;;;;;;;5052450;28;1468;-64
2023/05/28 00:45:22;;;;;;;;;;;;;;;;;;5046148;28;1445;-62
2023/05/28 00:47:47;;;;;;;;;;;;;;;;;;5041497;28;1575;-65
2023/05/28 00:50:12;;;;;;;;;;;;;;;;;;5051091;28;1910;-61
2023/05/28 00:52:38;;;;;;;;;;;;;;;;;;5051515;28;7209;-62
2023/05/28 00:55:04;;;;;;;;;;;;;;;;;;5052123;28;1388;-63
2023/05/28 00:57:29;;;;;;;;;;;;;;;;;;5052743;28;1562;-65
2023/05/28 01:00:05;;;;;;;;;;;;;;;;;;5064989;28;1582;-64
2023/05/28 01:02:31;;;;;;;;;;;;;;;;;;5053512;28;1507;-62
2023/05/28 01:04:56;;;;;;;;;;;;;;;;;;5052631;28;1208;-63
2023/05/28 01:07:21;;;;;;;;;;;;;;;;;;5052443;28;1471;-63
2023/05/28 01:09:46;;;;;;;;;;;;;;;;;;5080300;28;2009;-62
2023/05/28 01:12:12;;;;;;;;;;;;;;;;;;5065497;28;1296;-62
2023/05/28 01:14:37;;;;;;;;;;;;;;;;;;5046381;28;1436;-64
2023/05/28 01:17:03;;;;;;;;;;;;;;;;;;5035580;28;1598;-63
2023/05/28 01:19:28;;;;;;;;;;;;;;;;;;5068766;28;1839;-62
2023/05/28 01:22:03;;;;;;;;;;;;;;;;;;5051826;28;1856;-63
2023/05/28 01:24:28;;;;;;;;;;;;;;;;;;5067693;28;2022;-63
2023/05/28 01:26:54;;;;;;;;;;;;;;;;;;5062784;28;1335;-63
2023/05/28 01:29:19;;;;;;;;;;;;;;;;;;5053777;28;1890;-63
2023/05/28 01:31:45;;;;;;;;;;;;;;;;;;5069161;28;1505;-63
2023/05/28 01:34:10;;;;;;;;;;;;;;;;;;5068657;28;1459;-64
2023/05/28 01:36:39;;;;;;;;;;;;;;;;;;5034651;28;1794;-64
2023/05/28 01:39:04;;;;;;;;;;;;;;;;;;5060659;28;1634;-62
2023/05/28 01:41:30;;;;;;;;;;;;;;;;;;5054782;28;1589;-64
2023/05/28 01:43:55;;;;;;;;;;;;;;;;;;5051419;28;1521;-64
2023/05/28 01:46:21;;;;;;;;;;;;;;;;;;5046090;28;1469;-62
2023/05/28 01:48:46;;;;;;;;;;;;;;;;;;5045851;28;1932;-63
2023/05/28 01:51:15;;;;;;;;;;;;;;;;;;5051189;28;1467;-63
2023/05/28 01:53:40;;;;;;;;;;;;;;;;;;5031593;28;6968;-63
2023/05/28 01:56:05;;;;;;;;;;;;;;;;;;5051013;28;1507;-62
2023/05/28 01:58:31;;;;;;;;;;;;;;;;;;5051065;28;1446;-64
2023/05/28 02:01:19;;;;;;;;;;;;;;;;;;5051200;28;1470;-63
2023/05/28 02:03:45;;;;;;;;;;;;;;;;;;4981250;28;1509;-62
2023/05/28 02:06:10;;;;;;;;;;;;;;;;;;4988901;28;1520;-63
2023/05/28 02:08:36;;;;;;;;;;;;;;;;;;4988814;28;1988;-63
2023/05/28 02:11:01;;;;;;;;;;;;;;;;;;4988556;28;1614;-65
2023/05/28 02:13:27;;;;;;;;;;;;;;;;;;4988775;28;1579;-63
2023/05/28 02:15:53;;;;;;;;;;;;;;;;;;4988434;28;1642;-63
2023/05/28 02:18:18;;;;;;;;;;;;;;;;;;4985010;28;1695;-64
2023/05/28 02:20:43;;;;;;;;;;;;;;;;;;4977458;28;1657;-63
2023/05/28 02:23:09;;;;;;;;;;;;;;;;;;4988221;28;1505;-63
2023/05/28 02:25:34;;;;;;;;;;;;;;;;;;4988686;28;1684;-62
2023/05/28 02:28:00;;;;;;;;;;;;;;;;;;4988079;28;1390;-61
2023/05/28 02:30:25;;;;;;;;;;;;;;;;;;4988415;28;1907;-63
2023/05/28 02:32:51;;;;;;;;;;;;;;;;;;4984856;28;1530;-63
2023/05/28 02:35:18;;;;;;;;;;;;;;;;;;4985615;28;1354;-63
2023/05/28 02:37:43;;;;;;;;;;;;;;;;;;4987859;28;1900;-65
2023/05/28 02:40:09;;;;;;;;;;;;;;;;;;5003107;28;1658;-64
2023/05/28 02:42:34;;;;;;;;;;;;;;;;;;5048657;28;1550;-63
2023/05/28 02:45:00;;;;;;;;;;;;;;;;;;5048309;28;1438;-62
2023/05/28 02:47:25;;;;;;;;;;;;;;;;;;5050525;28;1616;-63
2023/05/28 02:49:50;;;;;;;;;;;;;;;;;;5048875;28;2258;-62
2023/05/28 02:52:16;;;;;;;;;;;;;;;;;;5049461;28;6683;-63
2023/05/28 02:54:41;;;;;;;;;;;;;;;;;;5048085;28;1624;-62
2023/05/28 02:57:06;;;;;;;;;;;;;;;;;;5049592;28;1178;-62
2023/05/28 02:59:32;;;;;;;;;;;;;;;;;;5049739;28;1376;-62
2023/05/28 03:01:58;;;;;;;;;;;;;;;;;;5049829;28;1511;-64
2023/05/28 03:04:23;;;;;;;;;;;;;;;;;;5049880;28;1339;-63
2023/05/28 03:06:48;;;;;;;;;;;;;;;;;;5046769;28;1516;-63
2023/05/28 03:09:14;;;;;;;;;;;;;;;;;;5049267;28;1902;-64
2023/05/28 03:11:39;;;;;;;;;;;;;;;;;;5049298;28;1532;-64
2023/05/28 03:14:04;;;;;;;;;;;;;;;;;;5049731;28;1425;-63
2023/05/28 03:16:32;;;;;;;;;;;;;;;;;;5048705;28;2098;-62
2023/05/28 03:18:57;;;;;;;;;;;;;;;;;;5049824;28;1587;-62
2023/05/28 03:21:22;;;;;;;;;;;;;;;;;;5051975;28;1371;-61
2023/05/28 03:23:48;;;;;;;;;;;;;;;;;;5053944;28;1296;-64
2023/05/28 03:26:13;;;;;;;;;;;;;;;;;;5054998;28;928;-65
2023/05/28 03:28:38;;;;;;;;;;;;;;;;;;5054081;28;1969;-64
2023/05/28 03:31:03;;;;;;;;;;;;;;;;;;5068249;28;1599;-62
2023/05/28 03:33:29;;;;;;;;;;;;;;;;;;5049121;28;1379;-64
2023/05/28 03:35:54;;;;;;;;;;;;;;;;;;5045471;28;1270;-62
2023/05/28 03:38:20;;;;;;;;;;;;;;;;;;5075421;28;1153;-63
2023/05/28 03:40:45;;;;;;;;;;;;;;;;;;5049134;28;1203;-65
2023/05/28 03:43:10;;;;;;;;;;;;;;;;;;5049631;28;1382;-62
2023/05/28 03:45:35;;;;;;;;;;;;;;;;;;5047552;28;1525;-62
2023/05/28 03:48:01;;;;;;;;;;;;;;;;;;5049346;28;1668;-63
2023/05/28 03:50:27;;;;;;;;;;;;;;;;;;5050705;28;1969;-63
2023/05/28 03:52:52;;;;;;;;;;;;;;;;;;5048003;28;7172;-65
2023/05/28 03:55:17;;;;;;;;;;;;;;;;;;5049686;28;1518;-63
2023/05/28 03:57:42;;;;;;;;;;;;;;;;;;5049059;28;1627;-62
2023/05/28 04:00:08;;;;;;;;;;;;;;;;;;5049871;28;1152;-63
2023/05/28 04:02:34;;;;;;;;;;;;;;;;;;5043052;28;1205;-63
2023/05/28 04:04:59;;;;;;;;;;;;;;;;;;5049918;28;1166;-63
2023/05/28 04:07:24;;;;;;;;;;;;;;;;;;5046862;28;1589;-64
2023/05/28 04:09:50;;;;;;;;;;;;;;;;;;5049151;28;1967;-64
2023/05/28 04:12:15;;;;;;;;;;;;;;;;;;5049002;28;1706;-63
2023/05/28 04:14:41;;;;;;;;;;;;;;;;;;5048809;28;1511;-62
2023/05/28 04:17:06;;;;;;;;;;;;;;;;;;5037642;28;1490;-63
2023/05/28 04:19:31;;;;;;;;;;;;;;;;;;5025694;28;1537;-64
2023/05/28 04:21:57;;;;;;;;;;;;;;;;;;5048381;28;1372;-63
2023/05/28 04:24:22;;;;;;;;;;;;;;;;;;5049011;28;1096;-63
2023/05/28 04:26:47;;;;;;;;;;;;;;;;;;5048994;28;1367;-65
2023/05/28 04:29:15;;;;;;;;;;;;;;;;;;5047143;28;2129;-63
2023/05/28 04:31:40;;;;;;;;;;;;;;;;;;5050007;28;1355;-62
2023/05/28 04:34:06;;;;;;;;;;;;;;;;;;5050444;28;1386;-63
2023/05/28 04:36:33;;;;;;;;;;;;;;;;;;5049944;28;1396;-63
2023/05/28 04:39:00;;;;;;;;;;;;;;;;;;5048231;28;1460;-63
2023/05/28 04:41:26;;;;;;;;;;;;;;;;;;5048474;28;1610;-63
2023/05/28 04:43:51;;;;;;;;;;;;;;;;;;5048068;28;1458;-64
2023/05/28 04:46:16;;;;;;;;;;;;;;;;;;5045027;28;1435;-62
2023/05/28 04:48:42;;;;;;;;;;;;;;;;;;5047602;28;1909;-64
2023/05/28 04:51:07;;;;;;;;;;;;;;;;;;5048304;28;1621;-62
2023/05/28 04:53:33;;;;;;;;;;;;;;;;;;5047669;28;6479;-62
2023/05/28 04:55:59;;;;;;;;;;;;;;;;;;5063035;28;1524;-62
2023/05/28 04:58:24;;;;;;;;;;;;;;;;;;5043844;28;1376;-64
2023/05/28 05:00:51;;;;;;;;;;;;;;;;;;5041642;28;1868;-63
2023/05/28 05:03:16;;;;;;;;;;;;;;;;;;5035140;28;1136;-65
2023/05/28 05:05:41;;;;;;;;;;;;;;;;;;5048242;28;1247;-63
2023/05/28 05:08:08;;;;;;;;;;;;;;;;;;5047890;28;1543;-64
2023/05/28 05:10:33;;;;;;;;;;;;;;;;;;5047827;28;2003;-62
2023/05/28 05:12:59;;;;;;;;;;;;;;;;;;5047953;28;1356;-62
2023/05/28 05:15:24;;;;;;;;;;;;;;;;;;5050654;28;1700;-63
2023/05/28 05:17:50;;;;;;;;;;;;;;;;;;5051921;28;1493;-63
2023/05/28 05:20:15;;;;;;;;;;;;;;;;;;5055565;28;1449;-64
2023/05/28 05:22:40;;;;;;;;;;;;;;;;;;5051909;28;1404;-62
2023/05/28 05:25:06;;;;;;;;;;;;;;;;;;5051541;28;1388;-63
2023/05/28 05:27:34;;;;;;;;;;;;;;;;;;5051517;28;1455;-65
2023/05/28 05:29:59;;;;;;;;;;;;;;;;;;5049198;28;1910;-62
2023/05/28 05:32:24;;;;;;;;;;;;;;;;;;5052012;28;1384;-64
2023/05/28 05:34:50;;;;;;;;;;;;;;;;;;5051615;28;1519;-63
2023/05/28 05:37:15;;;;;;;;;;;;;;;;;;5051491;28;1495;-62
2023/05/28 05:39:40;;;;;;;;;;;;;;;;;;5051462;28;1481;-65
2023/05/28 05:42:06;;;;;;;;;;;;;;;;;;5051382;28;1385;-63
2023/05/28 05:44:31;;;;;;;;;;;;;;;;;;5049708;28;1240;-64
2023/05/28 05:46:56;;;;;;;;;;;;;;;;;;5050947;28;1517;-64
2023/05/28 05:49:21;;;;;;;;;;;;;;;;;;5051020;28;2043;-63
2023/05/28 05:51:47;;;;;;;;;;;;;;;;;;5049728;28;1571;-62
2023/05/28 05:54:12;;;;;;;;;;;;;;;;;;5046714;28;1573;-64
2023/05/28 05:56:37;;;;;;;;;;;;;;;;;;5051181;28;1603;-64
2023/05/28 05:59:02;;;;;;;;;;;;;;;;;;5050920;28;1598;-64
2023/05/28 06:01:29;;;;;;;;;;;;;;;;;;5045346;28;1363;-64
2023/05/28 06:03:55;;;;;;;;;;;;;;;;;;5050741;28;1310;-63
2023/05/28 06:06:20;;;;;;;;;;;;;;;;;;5050823;28;1762;-64
2023/05/28 06:08:46;;;;;;;;;;;;;;;;;;5045741;28;1964;-63
2023/05/28 06:11:11;;;;;;;;;;;;;;;;;;5045552;28;1471;-64
2023/05/28 06:13:37;;;;;;;;;;;;;;;;;;5051934;28;1169;-63
2023/05/28 06:16:03;;;;;;;;;;;;;;;;;;5051570;28;1440;-63
2023/05/28 06:18:29;;;;;;;;;;;;;;;;;;5049246;28;1658;-63
2023/05/28 06:20:55;;;;;;;;;;;;;;;;;;5050379;28;1517;-64
2023/05/28 06:23:21;;;;;;;;;;;;;;;;;;5050380;28;1482;-64
2023/05/28 06:25:46;;;;;;;;;;;;;;;;;;5049551;28;1256;-62
2023/05/28 06:28:11;;;;;;;;;;;;;;;;;;5050312;28;1324;-61
2023/05/28 06:30:37;;;;;;;;;;;;;;;;;;5050380;28;1975;-62
2023/05/28 06:33:02;;;;;;;;;;;;;;;;;;5050243;28;1282;-64
2023/05/28 06:35:27;;;;;;;;;;;;;;;;;;5049334;28;1670;-65
2023/05/28 06:37:52;;;;;;;;;;;;;;;;;;5049916;28;1584;-62
2023/05/28 06:40:18;;;;;;;;;;;;;;;;;;5068388;28;1482;-65
2023/05/28 06:42:43;;;;;;;;;;;;;;;;;;5048843;28;1474;-63
2023/05/28 06:45:08;;;;;;;;;;;;;;;;;;5048042;28;1555;-63
2023/05/28 06:47:34;;;;;;;;;;;;;;;;;;5049519;28;1275;-64
2023/05/28 06:49:59;;;;;;;;;;;;;;;;;;5045734;28;1972;-64
2023/05/28 06:52:24;;;;;;;;;;;;;;;;;;5040955;28;6760;-63
2023/05/28 06:54:50;;;;;;;;;;;;;;;;;;5046642;28;1802;-64
2023/05/28 06:57:15;;;;;;;;;;;;;;;;;;5047022;28;1486;-64
2023/05/28 06:59:40;;;;;;;;;;;;;;;;;;5046571;28;1363;-63
2023/05/28 07:02:06;;;;;;;;;;;;;;;;;;5046938;28;1692;-64
2023/05/28 07:04:31;;;;;;;;;;;;;;;;;;5046789;28;1566;-64
2023/05/28 07:06:56;;;;;;;;;;;;;;;;;;5039899;28;1553;-63
2023/05/28 07:09:22;;;;;;;;;;;;;;;;;;5046436;28;1902;-62
2023/05/28 07:11:47;;;;;;;;;;;;;;;;;;5046858;28;1575;-62
2023/05/28 07:14:12;;;;;;;;;;;;;;;;;;5044481;28;1364;-62
2023/05/28 07:16:37;;;;;;;;;;;;;;;;;;5045674;28;1309;-63
2023/05/28 07:19:03;;;;;;;;;;;;;;;;;;5032430;28;1112;-63
2023/05/28 07:21:28;;;;;;;;;;;;;;;;;;5048832;28;911;-65
2023/05/28 07:23:53;;;;;;;;;;;;;;;;;;5053493;28;1386;-63
2023/05/28 07:26:18;;;;;;;;;;;;;;;;;;5046462;28;1521;-62
2023/05/28 07:28:43;;;;;;;;;;;;;;;;;;5049138;28;1902;-61
2023/05/28 07:31:09;;;;;;;;;;;;;;;;;;5049057;28;1480;-63
2023/05/28 07:33:35;;;;;;;;;;;;;;;;;;5048949;28;1492;-64
2023/05/28 07:36:00;;;;;;;;;;;;;;;;;;5047462;28;1122;-64
2023/05/28 07:38:25;;;;;;;;;;;;;;;;;;5049172;28;1567;-63
2023/05/28 07:40:50;;;;;;;;;;;;;;;;;;5048652;28;1417;-64
2023/05/28 07:43:15;;;;;;;;;;;;;;;;;;5048805;28;1050;-63
2023/05/28 07:45:41;;;;;;;;;;;;;;;;;;5046739;28;1277;-64
2023/05/28 07:48:06;;;;;;;;;;;;;;;;;;5048415;28;1606;-63
2023/05/28 07:50:31;;;;;;;;;;;;;;;;;;5048955;28;1909;-63
2023/05/28 07:52:57;;;;;;;;;;;;;;;;;;5048200;28;7039;-63
2023/05/28 07:55:22;;;;;;;;;;;;;;;;;;5048132;28;1250;-62
2023/05/28 07:57:48;;;;;;;;;;;;;;;;;;5048389;28;1443;-62
2023/05/28 08:00:15;;;;;;;;;;;;;;;;;;5048246;28;1509;-62
2023/05/28 08:02:41;;;;;;;;;;;;;;;;;;5038110;28;1600;-64
2023/05/28 08:05:07;;;;;;;;;;;;;;;;;;5050084;28;1507;-62
2023/05/28 08:07:33;;;;;;;;;;;;;;;;;;5050982;28;1117;-63
2023/05/28 08:09:58;;;;;;;;;;;;;;;;;;5049871;28;1961;-62
2023/05/28 08:12:23;;;;;;;;;;;;;;;;;;5049014;28;1447;-63
2023/05/28 08:14:50;;;;;;;;;;;;;;;;;;5047961;28;1289;-63
2023/05/28 08:17:16;;;;;;;;;;;;;;;;;;5046310;28;1599;-65
2023/05/28 08:19:41;;;;;;;;;;;;;;;;;;5047765;28;1772;-64
2023/05/28 08:22:06;;;;;;;;;;;;;;;;;;5048505;28;1103;-63
2023/05/28 08:24:31;;;;;;;;;;;;;;;;;;5048003;28;1240;-63
2023/05/28 08:26:57;;;;;;;;;;;;;;;;;;5048369;28;1288;-64
2023/05/28 08:29:22;;;;;;;;;;;;;;;;;;5048355;28;1959;-64
2023/05/28 08:31:47;;;;;;;;;;;;;;;;;;5038442;28;1238;-64
2023/05/28 08:34:12;;;;;;;;;;;;;;;;;;5042426;28;1469;-63
2023/05/28 08:36:38;;;;;;;;;;;;;;;;;;5048854;28;1574;-63
2023/05/28 08:39:04;;;;;;;;;;;;;;;;;;5048551;28;1496;-63
2023/05/28 08:41:29;;;;;;;;;;;;;;;;;;5047714;28;1455;-63
2023/05/28 08:43:54;;;;;;;;;;;;;;;;;;5047933;28;1297;-64
2023/05/28 08:46:19;;;;;;;;;;;;;;;;;;5046804;28;1476;-64
2023/05/28 08:48:45;;;;;;;;;;;;;;;;;;5047655;28;1999;-63
2023/05/28 08:51:11;;;;;;;;;;;;;;;;;;5051841;28;1161;-63
2023/05/28 08:53:39;;;;;;;;;;;;;;;;;;5057814;28;6710;-64
2023/05/28 08:56:05;;;;;;;;;;;;;;;;;;5051301;28;1376;-64
2023/05/28 08:58:30;;;;;;;;;;;;;;;;;;5042109;28;1419;-65
2023/05/28 09:00:55;;;;;;;;;;;;;;;;;;5067124;28;1355;-64
2023/05/28 09:03:21;;;;;;;;;;;;;;;;;;5051831;28;1482;-62
2023/05/28 09:05:46;;;;;;;;;;;;;;;;;;5051831;28;1512;-64
2023/05/28 09:08:12;;;;;;;;;;;;;;;;;;5051397;28;1602;-63
2023/05/28 09:10:37;;;;;;;;;;;;;;;;;;5051434;28;1910;-64
2023/05/28 09:13:02;;;;;;;;;;;;;;;;;;5052422;28;1441;-63
2023/05/28 09:15:28;;;;;;;;;;;;;;;;;;5051428;28;1725;-64
2023/05/28 09:17:53;;;;;;;;;;;;;;;;;;5049039;28;1466;-63
2023/05/28 09:20:19;;;;;;;;;;;;;;;;;;5067147;28;1756;-63
2023/05/28 09:22:44;;;;;;;;;;;;;;;;;;5051610;28;1450;-64
2023/05/28 09:25:10;;;;;;;;;;;;;;;;;;5051329;28;1505;-63
2023/05/28 09:27:36;;;;;;;;;;;;;;;;;;5049781;28;1363;-64
2023/05/28 09:30:07;;;;;;;;;;;;;;;;;;5051479;28;1910;-63
2023/05/28 09:32:33;;;;;;;;;;;;;;;;;;5051241;28;1444;-63
2023/05/28 09:34:58;;;;;;;;;;;;;;;;;;5051085;28;1410;-64
2023/05/28 09:37:24;;;;;;;;;;;;;;;;;;5051193;28;1431;-62
2023/05/28 09:39:59;;;;;;;;;;;;;;;;;;5080306;28;1711;-64
2023/05/28 09:42:24;;;;;;;;;;;;;;;;;;5051609;28;1655;-65
2023/05/28 09:44:49;;;;;;;;;;;;;;;;;;5050038;28;1590;-64
2023/05/28 09:47:15;;;;;;;;;;;;;;;;;;5049291;28;1474;-62
2023/05/28 09:49:44;;;;;;;;;;;;;;;;;;5039629;28;1910;-64
2023/05/28 09:52:10;;;;;;;;;;;;;;;;;;5046224;28;7309;-63
2023/05/28 09:54:35;;;;;;;;;;;;;;;;;;5066967;28;1248;-65
2023/05/28 09:57:02;;;;;;;;;;;;;;;;;;5049959;28;1266;-64
2023/05/28 09:59:28;;;;;;;;;;;;;;;;;;5038975;28;1261;-63
2023/05/28 10:01:56;;;;;;;;;;;;;;;;;;5016233;28;1314;-65
2023/05/28 10:04:21;;;;;;;;;;;;;;;;;;5023186;28;1562;-64
2023/05/28 10:06:47;;;;;;;;;;;;;;;;;;5020622;28;1472;-64
2023/05/28 10:09:14;;;;;;;;;;;;;;;;;;5033225;28;1950;-64
2023/05/28 10:11:45;;;;;;;;;;;;;;;;;;5043355;28;1333;-64
2023/05/28 10:14:11;;;;;;;;;;;;;;;;;;5043605;28;1712;-62
2023/05/28 10:16:36;;;;;;;;;;;;;;;;;;5039740;28;1526;-63
2023/05/28 10:19:01;;;;;;;;;;;;;;;;;;5044883;28;1670;-63
2023/05/28 10:21:26;;;;;;;;;;;;;;;;;;5045569;28;1593;-62
2023/05/28 10:23:52;;;;;;;;;;;;;;;;;;5032565;28;1648;-62
2023/05/28 10:26:18;;;;;;;;;;;;;;;;;;5041334;28;1495;-62
2023/05/28 10:28:44;;;;;;;;;;;;;;;;;;5036427;28;1909;-63
2023/05/28 10:31:10;;;;;;;;;;;;;;;;;;5050215;28;1425;-63
2023/05/28 10:33:42;;;;;;;;;;;;;;;;;;5066008;28;1327;-63
2023/05/28 10:36:11;;;;;;;;;;;;;;;;;;5050236;28;1400;-62
2023/05/28 10:38:44;;;;;;;;;;;;;;;;;;5050239;28;1271;-63
2023/05/28 10:41:09;;;;;;;;;;;;;;;;;;5050016;28;1489;-63
2023/05/28 10:43:37;;;;;;;;;;;;;;;;;;5029004;28;1438;-63
2023/05/28 10:46:02;;;;;;;;;;;;;;;;;;5027907;28;1497;-63
2023/05/28 10:48:29;;;;;;;;;;;;;;;;;;5026993;28;1755;-64
2023/05/28 10:51:00;;;;;;;;;;;;;;;;;;5035047;28;1905;-63
2023/05/28 10:53:26;;;;;;;;;;;;;;;;;;5023439;28;7259;-63
2023/05/28 10:55:55;;;;;;;;;;;;;;;;;;5035171;28;1223;-64
2023/05/28 10:58:24;;;;;;;;;;;;;;;;;;5028344;28;1545;-63
2023/05/28 11:00:49;;;;;;;;;;;;;;;;;;5038166;28;1561;-64
2023/05/28 11:03:15;;;;;;;;;;;;;;;;;;5033166;28;1672;-66
2023/05/28 11:05:40;;;;;;;;;;;;;;;;;;5027049;28;1826;-63
2023/05/28 11:08:07;;;;;;;;;;;;;;;;;;5044273;28;1619;-63
2023/05/28 11:10:32;;;;;;;;;;;;;;;;;;5015029;28;1987;-63
2023/05/28 11:12:57;;;;;;;;;;;;;;;;;;5046867;28;1108;-63
2023/05/28 11:15:22;;;;;;;;;;;;;;;;;;5050989;28;841;-64
2023/05/28 11:17:49;;;;;;;;;;;;;;;;;;5054994;28;1223;-64
2023/05/28 11:20:17;;;;;;;;;;;;;;;;;;5049692;28;1584;-63
2023/05/28 11:22:43;;;;;;;;;;;;;;;;;;5081628;28;1299;-64
2023/05/28 11:25:09;;;;;;;;;;;;;;;;;;5049148;28;1707;-64
2023/05/28 11:27:36;;;;;;;;;;;;;;;;;;5049133;28;1485;-63
2023/05/28 11:30:11;;;;;;;;;;;;;;;;;;5048953;28;1965;-64
2023/05/28 11:32:36;;;;;;;;;;;;;;;;;;5040110;28;1682;-63
2023/05/28 11:35:02;;;;;;;;;;;;;;;;;;5064138;28;1558;-63
2023/05/28 11:37:28;;;;;;;;;;;;;;;;;;5049320;28;1331;-63
2023/05/28 11:39:54;;;;;;;;;;;;;;;;;;5047406;28;1542;-64
2023/05/28 11:42:19;;;;;;;;;;;;;;;;;;5048673;28;1321;-62
2023/05/28 11:44:48;;;;;;;;;;;;;;;;;;5046477;28;1647;-62
2023/05/28 11:47:14;;;;;;;;;;;;;;;;;;5035944;28;1276;-63
2023/05/28 11:49:39;;;;;;;;;;;;;;;;;;5044665;28;2025;-63
2023/05/28 11:52:04;;;;;;;;;;;;;;;;;;5048316;28;6889;-62
2023/05/28 11:54:30;;;;;;;;;;;;;;;;;;5048694;28;1915;-64
2023/05/28 11:56:55;;;;;;;;;;;;;;;;;;5048354;28;1462;-63
2023/05/28 11:59:26;;;;;;;;;;;;;;;;;;5048239;28;1433;-64
2023/05/28 12:01:53;;;;;;;;;;;;;;;;;;5051849;28;1788;-63
2023/05/28 12:04:21;;;;;;;;;;;;;;;;;;5048565;28;1315;-63
2023/05/28 12:06:51;;;;;;;;;;;;;;;;;;5048521;28;1476;-65
2023/05/28 12:09:16;;;;;;;;;;;;;;;;;;5047927;28;1918;-64
2023/05/28 12:11:41;;;;;;;;;;;;;;;;;;5049021;28;1688;-63
2023/05/28 12:14:15;;;;;;;;;;;;;;;;;;5039896;28;1882;-64
2023/05/28 12:16:47;;;;;;;;;;;;;;;;;;5048769;28;1738;-62
2023/05/28 12:19:15;;;;;;;;;;;;;;;;;;5048245;28;1647;-63
2023/05/28 12:21:41;;;;;;;;;;;;;;;;;;5053643;28;1565;-63
2023/05/28 12:24:13;;;;;;;;;;;;;;;;;;5047622;28;1399;-62
2023/05/28 12:26:39;;;;;;;;;;;;;;;;;;5047916;28;1407;-63
2023/05/28 12:29:04;;;;;;;;;;;;;;;;;;5045715;28;1985;-64
2023/05/28 12:31:29;;;;;;;;;;;;;;;;;;5048373;28;1416;-63
2023/05/28 12:33:55;;;;;;;;;;;;;;;;;;5047905;28;1102;-63
2023/05/28 12:36:20;;;;;;;;;;;;;;;;;;5069370;28;1581;-63
2023/05/28 12:38:45;;;;;;;;;;;;;;;;;;5047758;28;1584;-63
2023/05/28 12:41:10;;;;;;;;;;;;;;;;;;5047986;28;1325;-62
2023/05/28 12:43:35;;;;;;;;;;;;;;;;;;5047944;28;1486;-63
2023/05/28 12:46:01;;;;;;;;;;;;;;;;;;5046646;28;1186;-61
2023/05/28 12:48:26;;;;;;;;;;;;;;;;;;5067306;28;1635;-62
2023/05/28 12:50:51;;;;;;;;;;;;;;;;;;5047184;28;1977;-64
2023/05/28 12:53:16;;;;;;;;;;;;;;;;;;5054567;28;6596;-63
2023/05/28 12:55:42;;;;;;;;;;;;;;;;;;5041589;28;1334;-62
2023/05/28 12:58:07;;;;;;;;;;;;;;;;;;5047751;28;1762;-63
2023/05/28 13:00:33;;;;;;;;;;;;;;;;;;5047781;28;1415;-63
2023/05/28 13:02:59;;;;;;;;;;;;;;;;;;5047363;28;1480;-64
2023/05/28 13:05:24;;;;;;;;;;;;;;;;;;5045991;28;1424;-63
2023/05/28 13:07:50;;;;;;;;;;;;;;;;;;5043621;28;1222;-63
2023/05/28 13:10:15;;;;;;;;;;;;;;;;;;5047535;28;1902;-63
2023/05/28 13:12:40;;;;;;;;;;;;;;;;;;5047818;28;1384;-64
2023/05/28 13:15:06;;;;;;;;;;;;;;;;;;5047844;28;1453;-63
2023/05/28 13:17:31;;;;;;;;;;;;;;;;;;5047476;28;1429;-64
2023/05/28 13:19:56;;;;;;;;;;;;;;;;;;5067494;28;1605;-65
2023/05/28 13:22:22;;;;;;;;;;;;;;;;;;5047095;28;1443;-63
2023/05/28 13:24:47;;;;;;;;;;;;;;;;;;5048351;28;1554;-63
2023/05/28 13:27:12;;;;;;;;;;;;;;;;;;5030353;28;1335;-63
2023/05/28 13:29:38;;;;;;;;;;;;;;;;;;5047078;28;1934;-63
2023/05/28 13:32:03;;;;;;;;;;;;;;;;;;5047342;28;1716;-63
2023/05/28 13:34:28;;;;;;;;;;;;;;;;;;5047418;28;1470;-64
2023/05/28 13:36:53;;;;;;;;;;;;;;;;;;5029626;28;1379;-62
2023/05/28 13:39:21;;;;;;;;;;;;;;;;;;5041555;28;1395;-64
2023/05/28 13:41:47;;;;;;;;;;;;;;;;;;5050207;28;1408;-64
2023/05/28 13:44:13;;;;;;;;;;;;;;;;;;5068992;28;1326;-63
2023/05/28 13:46:38;;;;;;;;;;;;;;;;;;5046880;28;1470;-64
2023/05/28 13:49:03;;;;;;;;;;;;;;;;;;5050160;28;1961;-64
2023/05/28 13:51:29;;;;;;;;;;;;;;;;;;5051108;28;1399;-62
2023/05/28 13:53:54;;;;;;;;;;;;;;;;;;5064861;28;7554;-63
2023/05/28 13:56:19;;;;;;;;;;;;;;;;;;5050486;28;1511;-65
2023/05/28 13:58:45;;;;;;;;;;;;;;;;;;5052104;28;1399;-63
2023/05/28 14:01:10;;;;;;;;;;;;;;;;;;5050899;28;1656;-63
2023/05/28 14:03:35;;;;;;;;;;;;;;;;;;5050840;28;1577;-63
2023/05/28 14:06:01;;;;;;;;;;;;;;;;;;5050500;28;1287;-64
2023/05/28 14:08:26;;;;;;;;;;;;;;;;;;5050392;28;1571;-64
2023/05/28 14:10:51;;;;;;;;;;;;;;;;;;5050802;28;1922;-62
2023/05/28 14:13:17;;;;;;;;;;;;;;;;;;5050109;28;1469;-64
2023/05/28 14:15:42;;;;;;;;;;;;;;;;;;5050392;28;1523;-64
2023/05/28 14:18:07;;;;;;;;;;;;;;;;;;5050566;28;1476;-63
2023/05/28 14:20:34;;;;;;;;;;;;;;;;;;5049293;28;1435;-63
2023/05/28 14:23:00;;;;;;;;;;;;;;;;;;5050309;28;1526;-65
2023/05/28 14:25:26;;;;;;;;;;;;;;;;;;5050325;28;1485;-63
2023/05/28 14:27:51;;;;;;;;;;;;;;;;;;5050211;28;1355;-63
2023/05/28 14:30:16;;;;;;;;;;;;;;;;;;5050134;28;1983;-64
2023/05/28 14:32:41;;;;;;;;;;;;;;;;;;5049144;28;1473;-64
2023/05/28 14:35:07;;;;;;;;;;;;;;;;;;5050539;28;1534;-65
2023/05/28 14:37:32;;;;;;;;;;;;;;;;;;5050424;28;1549;-63
2023/05/28 14:39:57;;;;;;;;;;;;;;;;;;5050236;28;1392;-64
2023/05/28 14:42:23;;;;;;;;;;;;;;;;;;5049746;28;1503;-63
2023/05/28 14:44:48;;;;;;;;;;;;;;;;;;5048376;28;1526;-63
2023/05/28 14:47:13;;;;;;;;;;;;;;;;;;5055740;28;1461;-64
2023/05/28 14:49:38;;;;;;;;;;;;;;;;;;5049515;28;1910;-63
2023/05/28 14:52:23;;;;;;;;;;;;;;;;;;5049529;28;7104;-64
2023/05/28 14:54:48;;;;;;;;;;;;;;;;;;5041850;28;1523;-63
2023/05/28 14:57:13;;;;;;;;;;;;;;;;;;5049577;28;1381;-61
2023/05/28 14:59:39;;;;;;;;;;;;;;;;;;5050594;28;1524;-62
2023/05/28 15:02:04;;;;;;;;;;;;;;;;;;5050139;28;1492;-63
2023/05/28 15:04:29;;;;;;;;;;;;;;;;;;5050754;28;1730;-64
2023/05/28 15:06:54;;;;;;;;;;;;;;;;;;5033067;28;1237;-64
2023/05/28 15:09:20;;;;;;;;;;;;;;;;;;5053190;28;1913;-64
2023/05/28 15:11:45;;;;;;;;;;;;;;;;;;5054286;28;1696;-64
2023/05/28 15:14:10;;;;;;;;;;;;;;;;;;5051177;28;1485;-64
2023/05/28 15:16:35;;;;;;;;;;;;;;;;;;5046527;28;1678;-63
2023/05/28 15:19:01;;;;;;;;;;;;;;;;;;5048187;28;1610;-64
2023/05/28 15:21:26;;;;;;;;;;;;;;;;;;5049261;28;1718;-63
2023/05/28 15:23:51;;;;;;;;;;;;;;;;;;5048993;28;1477;-64
2023/05/28 15:26:16;;;;;;;;;;;;;;;;;;5045987;28;1532;-63
2023/05/28 15:28:42;;;;;;;;;;;;;;;;;;5064327;28;1406;-64
2023/05/28 15:31:07;;;;;;;;;;;;;;;;;;5045259;28;1902;-64
2023/05/28 15:33:32;;;;;;;;;;;;;;;;;;5042444;28;1592;-65
2023/05/28 15:35:58;;;;;;;;;;;;;;;;;;5058568;28;1525;-64
2023/05/28 15:38:23;;;;;;;;;;;;;;;;;;5067485;28;1458;-63
2023/05/28 15:40:49;;;;;;;;;;;;;;;;;;5029797;28;1656;-64
2023/05/28 15:43:14;;;;;;;;;;;;;;;;;;5050042;28;1415;-64
2023/05/28 15:45:39;;;;;;;;;;;;;;;;;;5063974;28;1417;-63
2023/05/28 15:48:04;;;;;;;;;;;;;;;;;;5050405;28;1338;-64
2023/05/28 15:50:30;;;;;;;;;;;;;;;;;;5050576;28;1910;-63
2023/05/28 15:52:55;;;;;;;;;;;;;;;;;;5049622;28;7027;-64
2023/05/28 15:55:21;;;;;;;;;;;;;;;;;;5046356;28;1419;-63
2023/05/28 15:57:46;;;;;;;;;;;;;;;;;;5046151;28;1392;-63
2023/05/28 16:00:12;;;;;;;;;;;;;;;;;;5047972;28;1542;-64
2023/05/28 16:02:38;;;;;;;;;;;;;;;;;;5048077;28;1412;-64
2023/05/28 16:05:04;;;;;;;;;;;;;;;;;;5048140;28;1404;-62
2023/05/28 16:07:30;;;;;;;;;;;;;;;;;;5048226;28;1478;-62
2023/05/28 16:09:55;;;;;;;;;;;;;;;;;;5048119;28;1930;-64
2023/05/28 16:12:20;;;;;;;;;;;;;;;;;;5054682;28;1404;-64
2023/05/28 16:14:46;;;;;;;;;;;;;;;;;;5080160;28;1410;-64
2023/05/28 16:17:11;;;;;;;;;;;;;;;;;;5046790;28;1508;-64
2023/05/28 16:19:36;;;;;;;;;;;;;;;;;;5047662;28;1625;-64
2023/05/28 16:22:02;;;;;;;;;;;;;;;;;;5048042;28;1525;-63
2023/05/28 16:24:27;;;;;;;;;;;;;;;;;;5046343;28;1430;-62
2023/05/28 16:26:52;;;;;;;;;;;;;;;;;;5048233;28;1483;-64
2023/05/28 16:29:17;;;;;;;;;;;;;;;;;;5051830;28;1930;-63
2023/05/28 16:31:43;;;;;;;;;;;;;;;;;;5047951;28;1724;-64
2023/05/28 16:34:08;;;;;;;;;;;;;;;;;;5048058;28;1436;-63
2023/05/28 16:36:35;;;;;;;;;;;;;;;;;;5062935;28;1299;-62
2023/05/28 16:39:00;;;;;;;;;;;;;;;;;;5039920;28;1472;-63
2023/05/28 16:41:26;;;;;;;;;;;;;;;;;;5048033;28;1403;-64
2023/05/28 16:43:51;;;;;;;;;;;;;;;;;;5035674;28;1365;-63
2023/05/28 16:46:17;;;;;;;;;;;;;;;;;;5045753;28;1298;-66
2023/05/28 16:48:44;;;;;;;;;;;;;;;;;;5046892;28;1384;-63
2023/05/28 16:51:09;;;;;;;;;;;;;;;;;;5047508;28;1930;-64
2023/05/28 16:53:36;;;;;;;;;;;;;;;;;;5046956;28;7417;-63